Time;durP1;ratioP1;P1;durP2;ratioP2;P2;SDS_P1;SDS_P2;PMS_P1;PMS_P2;Temp;Humidity;BMP_temperature;BMP_pressure;BME280_temperature;BME280_humidity;BME280_pressure;Samples;Min_cycle;Max_cycle;Signal;HPM_P1;HPM_P2
2021/07/30 00:00:59;;;;;;;4.20;2.70;;;;;;;;;;5058767;28;20083;-87
2021/07/30 00:03:25;;;;;;;6.05;2.85;;;;;;;;;;5058693;28;20494;-86
2021/07/30 00:05:52;;;;;;;3.58;2.92;;;;;;;;;;5054181;28;20082;-87
2021/07/30 00:08:18;;;;;;;6.55;2.70;;;;;;;;;;5069494;28;20108;-85
2021/07/30 00:10:45;;;;;;;3.50;2.20;;;;;;;;;;5070766;28;20048;-86
2021/07/30 00:13:11;;;;;;;4.20;2.75;;;;;;;;;;5055231;28;20778;-87
2021/07/30 00:15:37;;;;;;;7.97;3.05;;;;;;;;;;5064937;28;20063;-85
2021/07/30 00:18:03;;;;;;;4.93;2.85;;;;;;;;;;5067174;28;20025;-87
2021/07/30 00:20:29;;;;;;;4.53;2.63;;;;;;;;;;5055371;28;20029;-85
2021/07/30 00:22:55;;;;;;;7.32;2.92;;;;;;;;;;5065505;28;20078;-87
2021/07/30 00:25:21;;;;;;;5.40;2.08;;;;;;;;;;5057061;28;20064;-86
2021/07/30 00:27:47;;;;;;;5.22;2.38;;;;;;;;;;5057988;28;20044;-87
2021/07/30 00:30:13;;;;;;;4.65;2.40;;;;;;;;;;5060848;28;20455;-86
2021/07/30 00:32:39;;;;;;;5.50;2.40;;;;;;;;;;5061373;28;20066;-87
2021/07/30 00:35:05;;;;;;;5.95;2.67;;;21.60;63.40;;;;;;5053015;28;20104;-86
2021/07/30 00:37:34;;;;;;;16.02;2.85;;;21.50;63.40;;;;;;5081109;28;20039;-87
2021/07/30 00:40:00;;;;;;;7.57;2.60;;;;;;;;;;5065385;28;20098;-87
2021/07/30 00:42:26;;;;;;;5.63;3.42;;;;;;;;;;5063351;28;20544;-87
2021/07/30 00:44:52;;;;;;;4.13;2.03;;;;;;;;;;5069829;28;20055;-86
2021/07/30 00:47:18;;;;;;;4.32;2.50;;;;;;;;;;5067968;28;20070;-86
2021/07/30 00:49:44;;;;;;;4.90;2.60;;;;;;;;;;5066072;28;20078;-86
2021/07/30 00:52:10;;;;;;;4.82;2.70;;;;;;;;;;5058271;28;20123;-87
2021/07/30 00:54:36;;;;;;;5.43;2.40;;;;;;;;;;5057529;28;20080;-86
2021/07/30 00:57:02;;;;;;;5.40;3.28;;;;;;;;;;5055309;28;20389;-86
2021/07/30 00:59:29;;;;;;;4.07;2.42;;;;;;;;;;5055263;28;20385;-87
2021/07/30 01:01:55;;;;;;;4.20;2.85;;;;;;;;;;5065351;28;20033;-86
2021/07/30 01:04:21;;;;;;;4.95;3.00;;;;;;;;;;5057475;28;20427;-86
2021/07/30 01:06:47;;;;;;;4.97;2.85;;;;;;;;;;5057175;28;20025;-86
2021/07/30 01:09:13;;;;;;;8.82;2.70;;;;;;;;;;5055754;28;20044;-86
2021/07/30 01:11:39;;;;;;;3.90;2.50;;;;;;;;;;5066180;28;20041;-87
2021/07/30 01:14:06;;;;;;;5.35;3.08;;;;;;;;;;5064645;28;20037;-86
2021/07/30 01:16:32;;;;;;;6.80;3.30;;;;;;;;;;5055491;28;20029;-87
2021/07/30 01:18:58;;;;;;;5.68;2.92;;;;;;;;;;5057028;28;20033;-87
2021/07/30 01:21:30;;;;;;;5.88;2.05;;;21.40;84.10;;;;;;5056907;28;20044;-86
2021/07/30 01:23:56;;;;;;;3.83;2.15;;;;;;;;;;5055787;28;20037;-86
2021/07/30 01:26:22;;;;;;;4.72;3.47;;;;;;;;;;5052397;28;20041;-87
2021/07/30 01:28:48;;;;;;;5.97;3.25;;;;;;;;;;5064561;28;20037;-86
2021/07/30 01:31:14;;;;;;;4.60;2.95;;;;;;;;;;5063268;28;20469;-86
2021/07/30 01:33:40;;;;;;;4.75;2.92;;;;;;;;;;5058828;28;20025;-87
2021/07/30 01:36:06;;;;;;;3.83;2.35;;;;;;;;;;5058066;28;20045;-86
2021/07/30 01:38:32;;;;;;;3.47;2.13;;;;;;;;;;5068228;28;20028;-84
2021/07/30 01:41:09;;;;;;;3.03;1.90;;;;;;;;;;5065537;28;20041;-87
2021/07/30 01:43:44;;;;;;;5.43;2.42;;;21.10;65.20;;;;;;5064161;28;20797;-86
2021/07/30 01:46:10;;;;;;;4.85;3.17;;;21.10;65.00;;;;;;5067304;28;20036;-86
2021/07/30 01:48:37;;;;;;;8.23;3.47;;;;;;;;;;5079332;28;20070;-87
2021/07/30 01:51:03;;;;;;;4.80;2.45;;;21.10;64.60;;;;;;5063496;28;20040;-86
2021/07/30 01:53:29;;;;;;;5.23;2.73;;;;;;;;;;5053034;28;20416;-86
2021/07/30 01:55:55;;;;;;;6.03;3.25;;;;;;;;;;5052195;28;20260;-86
2021/07/30 01:58:21;;;;;;;4.38;2.65;;;;;;;;;;5068952;28;20028;-87
2021/07/30 02:00:47;;;;;;;7.60;3.88;;;;;;;;;;5064123;28;20807;-87
2021/07/30 02:03:13;;;;;;;5.07;2.78;;;;;;;;;;5068717;28;20561;-86
2021/07/30 02:05:40;;;;;;;5.22;2.83;;;;;;;;;;5068412;28;20108;-86
2021/07/30 02:08:06;;;;;;;4.65;3.08;;;;;;;;;;5062535;28;20104;-86
2021/07/30 02:10:33;;;;;;;4.18;2.10;;;;;;;;;;5071331;28;20049;-86
2021/07/30 02:15:44;;;;;;;9.32;3.17;;;;;;;;;;5062438;28;20512;-86
2021/07/30 02:18:10;;;;;;;3.85;2.75;;;;;;;;;;5059897;28;20036;-86
2021/07/30 02:20:36;;;;;;;3.95;2.53;;;20.70;65.60;;;;;;5056403;28;20047;-86
2021/07/30 02:23:02;;;;;;;4.68;2.42;;;;;;;;;;5068639;28;20085;-86
2021/07/30 02:25:28;;;;;;;4.35;2.45;;;;;;;;;;5069693;28;20036;-87
2021/07/30 02:27:54;;;;;;;4.40;2.45;;;;;;;;;;5066872;28;20029;-86
2021/07/30 02:30:20;;;;;;;3.58;2.35;;;;;;;;;;5071181;28;20023;-87
2021/07/30 02:32:46;;;;;;;6.32;2.50;;;;;;;;;;5071643;28;20043;-86
2021/07/30 02:35:12;;;;;;;6.07;2.95;;;;;;;;;;5054169;28;20024;-86
2021/07/30 02:37:38;;;;;;;12.07;3.05;;;;;;;;;;5072707;28;20407;-86
2021/07/30 02:40:05;;;;;;;4.72;2.40;;;20.60;84.40;;;;;;5063097;28;20052;-87
2021/07/30 02:42:31;;;;;;;3.17;2.43;;;;;;;;;;5065168;28;20047;-86
2021/07/30 02:44:57;;;;;;;5.78;2.40;;;;;;;;;;5070221;28;20028;-86
2021/07/30 02:47:23;;;;;;;5.85;2.45;;;;;;;;;;5054452;28;20105;-86
2021/07/30 02:49:49;;;;;;;3.92;2.60;;;;;;;;;;5068172;28;20025;-87
2021/07/30 02:52:15;;;;;;;6.68;2.80;;;;;;;;;;5067672;28;20409;-87
2021/07/30 02:54:41;;;;;;;3.10;2.22;;;;;;;;;;5060500;28;20036;-87
2021/07/30 02:57:07;;;;;;;5.88;3.55;;;;;;;;;;5059606;28;20397;-86
2021/07/30 02:59:33;;;;;;;5.57;2.92;;;;;;;;;;5057849;28;20107;-86
2021/07/30 03:01:59;;;;;;;3.50;2.30;;;;;;;;;;5054707;28;20558;-87
2021/07/30 03:04:25;;;;;;;4.43;2.30;;;;;;;;;;5065846;28;20111;-86
2021/07/30 03:06:51;;;;;;;4.35;2.58;;;;;;;;;;5069359;28;20159;-85
2021/07/30 03:09:17;;;;;;;5.05;2.75;;;;;;;;;;5062350;28;20178;-86
2021/07/30 03:11:43;;;;;;;5.95;2.75;;;;;;;;;;5055220;28;20021;-86
2021/07/30 03:14:09;;;;;;;7.30;2.30;;;;;;;;;;5070203;28;20055;-86
2021/07/30 03:16:35;;;;;;;6.25;2.60;;;;;;;;;;5072243;28;20025;-86
2021/07/30 03:19:01;;;;;;;4.82;2.38;;;;;;;;;;5056157;28;20478;-85
2021/07/30 03:21:27;;;;;;;6.40;2.75;;;;;;;;;;5060053;28;20036;-87
2021/07/30 03:23:54;;;;;;;7.45;3.00;;;;;;;;;;5069994;28;20190;-86
2021/07/30 03:26:20;;;;;;;6.25;3.53;;;;;;;;;;5070113;28;20033;-85
2021/07/30 03:28:48;;;;;;;4.82;1.92;;;20.10;66.20;;;;;;5067761;28;20051;-86
2021/07/30 03:31:14;;;;;;;4.03;2.00;;;;;;;;;;5053694;28;20047;-87
2021/07/30 03:33:40;;;;;;;12.77;2.25;;;;;;;;;;5061646;28;20040;-86
2021/07/30 03:36:07;;;;;;;4.47;2.60;;;;;;;;;;5058494;28;20032;-86
2021/07/30 03:38:33;;;;;;;7.07;2.35;;;;;;;;;;5055411;28;20098;-86
2021/07/30 03:41:05;;;;;;;4.05;2.63;;;;;;;;;;5070440;28;20033;-86
2021/07/30 03:43:31;;;;;;;4.32;2.08;;;;;;;;;;5066761;28;20135;-87
2021/07/30 03:45:57;;;;;;;3.53;2.53;;;;;;;;;;5065973;28;20190;-86
2021/07/30 03:48:23;;;;;;;4.63;2.83;;;;;;;;;;5064133;28;20460;-86
2021/07/30 03:50:49;;;;;;;3.65;1.95;;;;;;;;;;5053788;28;20033;-86
2021/07/30 03:53:15;;;;;;;4.32;2.78;;;;;;;;;;5053569;28;20485;-86
2021/07/30 03:55:41;;;;;;;7.95;3.72;;;;;;;;;;5055037;28;20033;-86
2021/07/30 03:58:07;;;;;;;4.32;1.98;;;;;;;;;;5058506;28;20029;-86
2021/07/30 04:00:33;;;;;;;4.53;2.05;;;;;;;;;;5059426;28;20032;-86
2021/07/30 04:02:59;;;;;;;4.25;2.30;;;;;;;;;;5065263;28;20045;-86
2021/07/30 04:05:25;;;;;;;3.65;2.00;;;;;;;;;;5068703;28;20117;-87
2021/07/30 04:07:51;;;;;;;4.00;2.25;;;;;;;;;;5053854;28;20029;-86
2021/07/30 04:10:17;;;;;;;7.15;2.20;;;;;;;;;;5068442;28;20052;-86
2021/07/30 04:12:43;;;;;;;3.95;1.88;;;;;;;;;;5057583;28;20032;-87
2021/07/30 04:15:10;;;;;;;3.10;1.83;;;;;;;;;;5056642;28;20039;-86
2021/07/30 04:17:36;;;;;;;5.20;3.17;;;;;;;;;;5070285;28;20061;-86
2021/07/30 04:20:01;;;;;;;5.63;2.80;;;19.90;85.30;;;;;;5068391;28;20562;-85
2021/07/30 04:22:27;;;;;;;3.85;2.35;;;;;;;;;;5063816;28;20035;-86
2021/07/30 04:24:53;;;;;;;4.07;2.85;;;;;;;;;;5054530;28;20025;-86
2021/07/30 04:27:19;;;;;;;3.92;2.20;;;;;;;;;;5057590;28;20033;-86
2021/07/30 04:29:46;;;;;;;8.63;3.60;;;;;;;;;;5068836;28;20074;-86
2021/07/30 04:32:12;;;;;;;5.32;2.55;;;;;;;;;;5052719;28;20036;-86
2021/07/30 04:34:39;;;;;;;9.57;2.50;;;19.90;67.20;;;;;;5051110;28;20409;-86
2021/07/30 04:37:05;;;;;;;5.22;2.30;;;;;;;;;;5063504;28;20036;-87
2021/07/30 04:39:31;;;;;;;6.43;2.70;;;;;;;;;;5059754;28;20025;-86
2021/07/30 04:41:57;;;;;;;4.03;2.83;;;;;;;;;;5053960;28;20045;-85
2021/07/30 04:44:23;;;;;;;6.47;2.85;;;;;;;;;;5068928;28;20029;-86
2021/07/30 04:46:49;;;;;;;7.50;2.47;;;;;;;;;;5053571;28;20029;-86
2021/07/30 04:49:15;;;;;;;4.07;2.28;;;;;;;;;;5057038;28;20023;-87
2021/07/30 04:51:41;;;;;;;6.70;2.80;;;;;;;;;;5064754;28;20538;-86
2021/07/30 04:54:07;;;;;;;3.58;2.13;;;;;;;;;;5066346;28;20036;-87
2021/07/30 04:56:33;;;;;;;8.13;2.28;;;;;;;;;;5053368;28;20024;-87
2021/07/30 04:58:59;;;;;;;5.32;2.38;;;;;;;;;;5052868;28;20513;-86
2021/07/30 05:01:25;;;;;;;6.03;3.38;;;;;;;;;;5068172;28;20048;-86
2021/07/30 05:03:51;;;;;;;7.70;3.05;;;;;;;;;;5060715;28;20039;-86
2021/07/30 05:06:19;;;;;;;4.85;2.35;;;20.20;67.40;;;;;;5056364;28;20028;-85
2021/07/30 05:08:45;;;;;;;5.28;3.20;;;;;;;;;;5064125;28;20592;-85
2021/07/30 05:11:11;;;;;;;6.13;3.35;;;;;;;;;;5052521;28;20794;-86
2021/07/30 05:13:42;;;;;;;5.95;2.45;;;20.30;67.10;;;;;;5054776;28;20020;-86
2021/07/30 05:16:13;;;;;;;5.63;2.80;;;20.80;85.90;;;;;;5063709;28;20040;-85
2021/07/30 05:18:39;;;;;;;6.00;2.47;;;;;;;;;;5060775;28;20409;-86
2021/07/30 05:21:06;;;;;;;8.68;4.10;;;20.80;65.50;;;;;;5055981;28;20174;-86
2021/07/30 05:23:32;;;;;;;7.32;3.38;;;;;;;;;;5065384;28;20025;-86
2021/07/30 05:25:58;;;;;;;6.30;2.83;;;;;;;;;;5065965;28;20044;-86
2021/07/30 05:28:24;;;;;;;5.25;2.95;;;;;;;;;;5067671;28;20028;-86
2021/07/30 05:30:51;;;;;;;5.07;3.63;;;;;;;;;;5064095;28;20029;-86
2021/07/30 05:33:17;;;;;;;3.92;2.47;;;;;;;;;;5064668;28;20497;-86
2021/07/30 05:35:43;;;;;;;6.20;2.92;;;;;;;;;;5063637;28;20025;-86
2021/07/30 05:38:09;;;;;;;14.18;2.95;;;;;;;;;;5067494;28;20025;-86
2021/07/30 05:40:35;;;;;;;5.25;2.47;;;;;;;;;;5064785;28;20039;-86
2021/07/30 05:43:01;;;;;;;4.22;2.65;;;;;;;;;;5069586;28;20436;-86
2021/07/30 05:45:27;;;;;;;5.68;2.95;;;;;;;;;;5068805;28;20039;-86
2021/07/30 05:47:53;;;;;;;3.90;2.55;;;;;;;;;;5063841;28;20056;-86
2021/07/30 05:50:19;;;;;;;4.28;2.67;;;;;;;;;;5071429;28;20031;-86
2021/07/30 05:52:45;;;;;;;8.15;3.80;;;;;;;;;;5069220;28;20056;-86
2021/07/30 05:55:11;;;;;;;6.63;2.35;;;;;;;;;;5055877;28;20485;-86
2021/07/30 05:57:37;;;;;;;6.72;2.40;;;;;;;;;;5062001;28;20457;-87
2021/07/30 06:00:05;;;;;;;14.93;3.85;;;21.70;64.30;;;;;;5067417;28;20100;-88
2021/07/30 06:02:30;;;;;;;;;;;21.80;64.30;;;;;;5048048;28;20052;-86
2021/07/30 06:04:56;;;;;;;4.38;2.53;;;;;;;;;;5066412;28;19978;-86
2021/07/30 06:07:22;;;;;;;6.55;2.85;;;;;;;;;;5066875;28;20032;-87
2021/07/30 06:09:48;;;;;;;6.50;3.58;;;;;;;;;;5062009;28;20036;-86
2021/07/30 06:12:14;;;;;;;6.28;2.83;;;;;;;;;;5067732;28;20048;-87
2021/07/30 06:14:40;;;;;;;6.03;2.90;;;;;;;;;;5069875;28;20039;-77
2021/07/30 06:17:06;;;;;;;7.65;3.78;;;;;;;;;;5069766;28;20517;-75
2021/07/30 06:19:32;;;;;;;7.53;3.60;;;;;;;;;;5067305;28;20028;-75
2021/07/30 06:21:59;;;;;;;4.18;2.33;;;;;;;;;;5061063;28;20041;-75
2021/07/30 06:24:25;;;;;;;8.77;4.63;;;;;;;;;;5058549;28;20025;-80
2021/07/30 06:26:51;;;;;;;6.40;3.90;;;;;;;;;;5065770;28;20033;-79
2021/07/30 06:29:17;;;;;;;10.85;3.63;;;;;;;;;;5069140;28;20013;-79
2021/07/30 06:31:43;;;;;;;6.07;3.20;;;;;;;;;;5066970;28;20036;-80
2021/07/30 06:34:09;;;;;;;9.00;3.65;;;23.10;61.40;;;;;;5066186;28;20460;-79
2021/07/30 06:36:35;;;;;;;8.13;3.72;;;;;;;;;;5066028;28;20034;-79
2021/07/30 06:39:01;;;;;;;8.75;3.85;;;;;;;;;;5068648;28;20020;-78
2021/07/30 06:41:27;;;;;;;8.27;3.08;;;;;;;;;;5055281;28;20432;-79
2021/07/30 06:43:54;;;;;;;7.95;3.50;;;;;;;;;;5066287;28;20053;-80
2021/07/30 06:46:20;;;;;;;11.32;3.28;;;;;;;;;;5058265;28;20547;-78
2021/07/30 06:48:46;;;;;;;7.43;3.47;;;;;;;;;;5062091;28;20032;-79
2021/07/30 06:51:12;;;;;;;8.50;4.38;;;;;;;;;;5065134;28;20678;-78
2021/07/30 06:53:38;;;;;;;7.60;3.83;;;;;;;;;;5066863;28;20513;-79
2021/07/30 06:56:11;;;;;;;7.72;3.55;;;24.20;59.00;;;;;;5064410;28;20079;-79
2021/07/30 06:58:37;;;;;;;9.13;4.18;;;;;;;;;;5064859;28;20020;-79
2021/07/30 07:01:04;;;;;;;5.40;3.60;;;;;;;;;;5053760;28;20113;-79
2021/07/30 07:03:30;;;;;;;7.07;2.93;;;;;;;;;;5058639;28;20052;-79
2021/07/30 07:05:56;;;;;;;7.00;3.30;;;;;;;;;;5056807;28;20322;-79
2021/07/30 07:08:22;;;;;;;13.23;3.55;;;;;;;;;;5069033;28;20118;-79
2021/07/30 07:10:48;;;;;;;5.35;3.25;;;;;;;;;;5066986;28;20049;-80
2021/07/30 07:13:15;;;;;;;7.07;2.63;;;;;;;;;;5062701;28;20608;-79
2021/07/30 07:15:45;;;;;;;7.28;3.65;;;;;;;;;;5060710;28;20024;-80
2021/07/30 07:18:11;;;;;;;9.77;3.10;;;;;;;;;;5064996;28;20524;-80
2021/07/30 07:20:37;;;;;;;4.00;2.47;;;;;;;;;;5069662;28;20036;-80
2021/07/30 07:23:03;;;;;;;2.80;1.70;;;;;;;;;;5053092;28;20074;-78
2021/07/30 07:25:29;;;;;;;4.00;1.75;;;;;;;;;;5060293;28;20347;-80
2021/07/30 07:27:55;;;;;;;3.38;2.05;;;;;;;;;;5061709;28;20165;-80
2021/07/30 07:30:21;;;;;;;5.35;2.58;;;;;;;;;;5058604;28;20025;-79
2021/07/30 07:32:50;;;;;;;5.27;2.87;;;29.90;43.70;;;;;;5053618;28;20398;-79
2021/07/30 07:35:16;;;;;;;7.40;3.17;;;;;;;;;;5059277;28;20837;-79
2021/07/30 07:37:42;;;;;;;5.20;3.25;;;;;;;;;;5052657;28;20021;-80
2021/07/30 07:40:08;;;;;;;5.32;2.47;;;;;;;;;;5053543;28;20031;-79
2021/07/30 07:42:35;;;;;;;6.13;3.03;;;28.70;46.90;;;;;;5058735;28;20078;-81
2021/07/30 07:45:01;;;;;;;5.53;3.00;;;;;;;;;;5057334;28;20060;-80
2021/07/30 07:47:29;;;;;;;8.20;2.92;;;28.00;46.90;;;;;;5054600;28;20508;-80
2021/07/30 07:49:55;;;;;;;5.43;3.20;;;;;;;;;;5055326;28;20151;-80
2021/07/30 07:52:21;;;;;;;4.75;2.85;;;;;;;;;;5059382;28;20112;-80
2021/07/30 07:54:47;;;;;;;6.38;3.22;;;;;;;;;;5065102;28;20024;-79
2021/07/30 07:57:13;;;;;;;5.55;3.25;;;;;;;;;;5063125;28;20817;-80
2021/07/30 07:59:41;;;;;;;8.25;3.13;;;;;;;;;;5057800;28;20548;-80
2021/07/30 08:02:07;;;;;;;4.43;2.92;;;;;;;;;;5064121;28;20036;-80
2021/07/30 08:04:33;;;;;;;9.18;3.58;;;;;;;;;;5060834;28;20924;-80
2021/07/30 08:07:03;;;;;;;8.43;3.30;;;;;;;;;;5062356;28;20552;-80
2021/07/30 08:09:29;;;;;;;6.25;3.38;;;;;;;;;;5060048;28;20064;-80
2021/07/30 08:11:56;;;;;;;6.20;3.38;;;;;;;;;;5055286;28;20028;-79
2021/07/30 08:14:22;;;;;;;8.63;4.20;;;;;;;;;;5062938;28;20149;-79
2021/07/30 08:16:48;;;;;;;7.45;4.10;;;;;;;;;;5053194;28;20302;-80
2021/07/30 08:19:14;;;;;;;6.50;3.28;;;;;;;;;;5057796;28;20103;-79
2021/07/30 08:21:40;;;;;;;10.98;3.38;;;25.90;55.20;;;;;;5064485;28;20080;-79
2021/07/30 08:24:06;;;;;;;5.43;2.67;;;;;;;;;;5058304;28;20028;-79
2021/07/30 08:26:32;;;;;;;5.90;3.45;;;;;;;;;;5059044;28;20468;-79
2021/07/30 08:28:58;;;;;;;5.18;3.03;;;;;;;;;;5062982;28;20012;-80
2021/07/30 08:31:25;;;;;;;3.75;2.33;;;;;;;;;;5055127;28;20048;-79
2021/07/30 08:33:51;;;;;;;6.53;3.20;;;;;;;;;;5059993;28;20132;-79
2021/07/30 08:36:17;;;;;;;6.17;2.90;;;30.90;62.70;;;;;;5062924;28;20025;-79
2021/07/30 08:38:43;;;;;;;7.93;3.13;;;;;;;;;;5068330;28;20161;-79
2021/07/30 08:41:09;;;;;;;7.32;3.35;;;;;;;;;;5053641;28;20040;-91
2021/07/30 08:43:35;;;;;;;6.13;2.88;;;;;;;;;;5071145;28;20025;-93
2021/07/30 08:46:02;;;;;;;3.83;2.22;;;;;;;;;;5071922;28;20090;-89
2021/07/30 08:48:29;;;;;;;6.68;2.10;;;;;;;;;;5070737;28;20027;-89
2021/07/30 08:50:55;;;;;;;5.85;3.33;;;38.00;33.10;;;;;;5069101;28;20419;-89
2021/07/30 08:53:23;;;;;;;5.05;2.50;;;38.20;32.00;;;;;;5070123;28;20038;-89
2021/07/30 08:55:49;;;;;;;7.65;2.60;;;;;;;;;;5067463;28;20024;-89
2021/07/30 08:58:15;;;;;;;4.90;2.55;;;;;;;;;;5069939;28;20131;-89
2021/07/30 09:00:41;;;;;;;5.40;2.87;;;;;;;;;;5069949;28;20404;-89
2021/07/30 09:03:07;;;;;;;6.17;2.97;;;;;;;;;;5068609;28;20267;-89
2021/07/30 09:05:36;;;;;;;7.47;3.17;;;;;;;;;;5054216;28;20316;-90
2021/07/30 09:08:07;;;;;;;7.97;3.08;;;31.30;40.30;;;;;;5051659;28;20049;-89
2021/07/30 09:10:36;;;;;;;3.92;2.40;;;30.50;41.80;;;;;;5067790;28;20053;-90
2021/07/30 09:13:25;;;;;;;4.75;2.22;;;29.90;44.00;;;;;;5058771;28;20021;-90
2021/07/30 09:16:07;;;;;;;5.07;2.72;;;;;;;;;;5052217;28;20032;-89
2021/07/30 09:18:36;;;;;;;6.95;3.33;;;;;;;;;;5054846;28;20485;-90
2021/07/30 09:21:30;;;;;;;5.57;3.42;;;28.80;47.60;;;;;;5061568;28;20039;-88
2021/07/30 09:24:03;;;;;;;6.68;2.85;;;28.70;47.20;;;;;;5066177;28;20040;-89
2021/07/30 09:26:32;;;;;;;5.38;3.03;;;;;;;;;;5058034;28;20036;-92
2021/07/30 09:29:00;;;;;;;8.15;3.97;;;;;;;;;;5051322;28;20359;-92
2021/07/30 09:31:34;;;;;;;4.78;3.20;;;;;;;;;;5066037;28;20036;-90
2021/07/30 09:34:15;;;;;;;5.30;2.75;;;28.30;48.10;;;;;;5062502;28;20025;-88
2021/07/30 09:36:52;;;;;;;5.88;2.83;;;28.10;48.70;;;;;;5063955;28;20032;-90
2021/07/30 09:39:24;;;;;;;4.93;3.33;;;28.30;47.90;;;;;;5056968;28;20521;-89
2021/07/30 09:41:52;;;;;;;6.18;3.10;;;;;;;;;;5058668;28;20063;-93
2021/07/30 09:44:19;;;;;;;4.60;3.17;;;;;;;;;;5067227;28;20110;-91
2021/07/30 09:47:02;;;;;;;6.03;2.72;;;30.30;45.50;;;;;;5061294;28;20025;-86
2021/07/30 09:49:56;;;;;;;6.28;3.28;;;30.20;46.10;;;;;;5058751;28;20024;-88
2021/07/30 09:52:29;;;;;;;7.03;2.63;;;29.80;44.90;;;;;;5065464;28;20028;-88
2021/07/30 09:54:55;;;;;;;5.65;2.90;;;;;;;;;;5061141;28;20021;-87
2021/07/30 09:57:33;;;;;;;5.43;3.70;;;30.10;46.40;;;;;;5053480;28;20124;-87
2021/07/30 10:00:03;;;;;;;5.70;3.28;;;31.20;45.10;;;;;;5063813;28;20021;-88
2021/07/30 10:02:30;;;;;;;6.30;3.20;;;31.50;42.90;;;;;;5059793;28;20040;-89
2021/07/30 10:04:57;;;;;;;4.57;2.75;;;32.20;42.40;;;;;;5059486;28;20013;-87
2021/07/30 10:07:24;;;;;;;6.13;2.90;;;33.00;40.60;;;;;;5061427;28;20170;-86
2021/07/30 10:10:04;;;;;;;6.65;2.97;;;33.50;40.50;;;;;;5061675;28;20049;-88
2021/07/30 10:12:31;;;;;;;7.63;2.72;;;;;;;;;;5055299;28;20048;-87
2021/07/30 10:15:00;;;;;;;6.47;3.17;;;34.60;38.70;;;;;;5058420;28;20036;-88
2021/07/30 10:17:33;;;;;;;5.53;2.60;;;35.40;38.00;;;;;;5056953;28;20037;-87
2021/07/30 10:20:02;;;;;;;6.00;2.53;;;36.70;36.70;;;;;;5050931;28;20033;-88
2021/07/30 10:22:37;;;;;;;5.45;3.45;;;;;;;;;;5056991;28;20733;-88
2021/07/30 10:25:03;;;;;;;7.05;2.53;;;;;;;;;;5059522;28;20021;-88
2021/07/30 10:27:30;;;;;;;7.05;2.90;;;37.00;34.50;;;;;;5058716;28;20025;-89
2021/07/30 10:30:02;;;;;;;4.25;2.45;;;;;;;;;;5061738;28;20036;-93
2021/07/30 10:32:44;;;;;;;6.18;2.42;;;35.10;35.10;;;;;;5063180;28;20036;-88
2021/07/30 10:35:14;;;;;;;10.88;4.03;;;34.50;36.20;;;;;;5058831;28;20028;-90
2021/07/30 10:37:42;;;;;;;6.57;2.88;;;33.40;37.80;;;;;;5071556;28;20031;-92
2021/07/30 10:40:19;;;;;;;4.82;2.78;;;32.60;39.40;;;;;;5067786;28;20099;-93
2021/07/30 10:43:04;;;;;;;5.07;1.95;;;32.10;56.00;;;;;;5071659;28;20024;-93
2021/07/30 10:45:43;;;;;;;10.45;3.40;;;31.20;41.10;;;;;;5067402;28;20031;-90
2021/07/30 10:48:12;;;;;;;6.45;2.65;;;31.60;58.70;;;;;;5069110;28;20029;-92
2021/07/30 10:50:56;;;;;;;6.20;2.75;;;;;;;;;;5063359;28;20467;-93
2021/07/30 10:53:34;;;;;;;7.22;4.10;;;;;;;;;;5070367;28;20035;-91
2021/07/30 10:56:02;;;;;;;6.03;3.33;;;30.60;43.80;;;;;;5075569;28;20489;-92
2021/07/30 10:58:39;;;;;;;6.10;2.63;;;30.60;61.80;;;;;;5062635;28;20033;-94
2021/07/30 11:01:06;;;;;;;4.72;2.95;;;;;;;;;;5056421;28;20040;-94
2021/07/30 11:03:52;;;;;;;12.87;3.23;;;30.90;43.90;;;;;;5067192;28;20116;-95
2021/07/30 11:06:17;;;;;;;5.88;2.63;;;30.90;60.90;;;;;;5067496;28;20433;-96
2021/07/30 11:11:42;;;;;;;5.05;3.20;;;30.80;59.60;;;;;;5070493;28;20417;-95
2021/07/30 11:14:08;;;;;;;8.85;3.85;;;;;;;;;;5081205;28;20028;-94
2021/07/30 11:16:34;;;;;;;5.90;3.13;;;;;;;;;;5057226;28;20116;-95
2021/07/30 11:19:01;;;;;;;7.15;3.03;;;29.80;44.70;;;;;;5075260;28;20080;-95
2021/07/30 11:21:29;;;;;;;;;;;29.60;45.20;;;;;;5065151;28;20489;-96
2021/07/30 11:23:55;;;;;;;5.05;2.92;;;;;;;;;;5074611;28;20352;-95
2021/07/30 11:26:21;;;;;;;5.20;3.47;;;;;;;;;;5060536;28;20036;-96
2021/07/30 11:28:56;;;;;;;4.53;2.78;;;29.20;45.40;;;;;;5091770;28;20074;-94
2021/07/30 11:31:22;;;;;;;8.30;3.78;;;;;;;;;;5069300;28;20032;-96
2021/07/30 11:33:48;;;;;;;6.60;3.38;;;;;;;;;;5056058;28;20025;-94
2021/07/30 11:36:15;;;;;;;4.20;2.60;;;;;;;;;;5073051;28;20024;-95
2021/07/30 11:38:50;;;;;;;12.87;4.17;;;;;;;;;;5074713;28;20025;-96
2021/07/30 11:41:17;;;;;;;4.90;3.03;;;28.80;45.90;;;;;;5066142;28;20287;-96
2021/07/30 11:44:03;;;;;;;5.43;3.28;;;28.70;46.10;;;;;;5070332;28;20024;-94
2021/07/30 11:46:33;;;;;;;6.35;3.05;;;28.70;46.90;;;;;;5072388;28;20052;-95
2021/07/30 11:48:59;;;;;;;7.35;2.88;;;;;;;;;;5062849;28;20035;-95
2021/07/30 11:51:25;;;;;;;7.88;3.03;;;;;;;;;;5065710;28;20116;-95
2021/07/30 11:53:54;;;;;;;4.07;2.72;;;29.00;48.20;;;;;;5063917;28;20025;-96
2021/07/30 11:56:20;;;;;;;5.18;2.47;;;;;;;;;;5069213;28;20040;-95
2021/07/30 11:59:03;;;;;;;6.97;2.60;;;28.50;50.10;;;;;;5054770;28;20036;-95
2021/07/30 12:01:31;;;;;;;5.70;2.97;;;28.40;50.90;;;;;;5074218;28;20041;-94
2021/07/30 12:04:07;;;;;;;5.13;3.20;;;28.20;69.60;;;;;;5069711;28;20490;-96
2021/07/30 12:06:51;;;;;;;6.30;3.00;;;28.10;70.30;;;;;;5071153;28;20033;-95
2021/07/30 12:09:19;;;;;;;7.63;3.63;;;28.00;53.70;;;;;;5081340;28;20144;-95
2021/07/30 12:11:49;;;;;;;;;;;27.80;53.50;;;;;;5077537;28;20041;-96
2021/07/30 12:14:15;;;;;;;5.75;3.70;;;;;;;;;;5059195;28;19940;-94
2021/07/30 12:16:43;;;;;;;8.07;3.47;;;27.80;53.10;;;;;;5064473;28;20046;-95
2021/07/30 12:19:08;;;;;;;;;;;27.80;53.90;;;;;;5070747;28;20075;-95
2021/07/30 12:21:34;;;;;;;8.17;3.13;;;;;;;;;;5071103;28;20369;-94
2021/07/30 12:24:05;;;;;;;5.80;3.03;;;27.90;53.30;;;;;;5074811;28;20025;-96
2021/07/30 12:26:37;;;;;;;5.60;3.22;;;27.90;53.30;;;;;;5075252;28;20036;-96
2021/07/30 12:29:04;;;;;;;6.90;3.38;;;27.80;53.80;;;;;;5056444;28;20024;-95
2021/07/30 12:31:31;;;;;;;4.80;2.55;;;27.70;53.80;;;;;;5086629;28;20033;-94
2021/07/30 12:34:13;;;;;;;;;;;27.60;53.90;;;;;;5054716;28;20025;-95
2021/07/30 12:36:39;;;;;;;7.07;3.20;;;;;;;;;;5071176;28;19912;-95
2021/07/30 12:39:06;;;;;;;8.27;2.55;;;;;;;;;;5079107;28;20066;-94
2021/07/30 12:41:36;;;;;;;3.53;2.45;;;;;;;;;;5072589;28;20429;-94
2021/07/30 12:44:09;;;;;;;7.78;4.10;;;27.10;53.70;;;;;;5057825;28;20029;-96
2021/07/30 12:46:43;;;;;;;5.18;3.13;;;27.10;54.20;;;;;;5057490;28;20090;-95
2021/07/30 12:49:10;;;;;;;5.53;2.90;;;27.10;54.80;;;;;;5059503;28;20113;-96
2021/07/30 12:51:38;;;;;;;4.13;2.50;;;27.10;54.50;;;;;;5065198;28;20448;-96
2021/07/30 12:54:05;;;;;;;;;;;27.20;54.50;;;;;;5059823;28;20029;-96
2021/07/30 12:56:53;;;;;;;5.38;3.15;;;27.60;69.20;;;;;;5060128;28;20387;-96
2021/07/30 12:59:19;;;;;;;6.00;3.63;;;;;;;;;;5066355;28;20044;-96
2021/07/30 13:01:45;;;;;;;6.82;3.20;;;;;;;;;;5078684;28;20039;-95
2021/07/30 13:04:12;;;;;;;5.75;2.58;;;;;;;;;;5070193;28;20083;-96
2021/07/30 13:06:41;;;;;;;6.50;2.95;;;;;;;;;;5080055;28;20023;-96
2021/07/30 13:09:07;;;;;;;5.55;2.97;;;;;;;;;;5063773;28;20044;-95
2021/07/30 13:11:35;;;;;;;5.97;2.97;;;;;;;;;;5073942;28;20078;-93
2021/07/30 13:14:01;;;;;;;4.20;2.50;;;;;;;;;;5065056;28;20039;-95
2021/07/30 13:16:27;;;;;;;4.10;2.92;;;;;;;;;;5060696;28;20397;-96
2021/07/30 13:18:53;;;;;;;4.85;2.35;;;;;;;;;;5062200;28;20031;-94
2021/07/30 13:21:19;;;;;;;6.13;2.53;;;;;;;;;;5064391;28;20085;-95
2021/07/30 13:23:45;;;;;;;4.13;2.50;;;;;;;;;;5069781;28;20032;-95
2021/07/30 13:26:11;;;;;;;4.60;2.60;;;;;;;;;;5060733;28;20037;-96
2021/07/30 13:28:37;;;;;;;4.47;2.90;;;;;;;;;;5070477;28;20087;-95
2021/07/30 13:31:03;;;;;;;3.10;2.50;;;;;;;;;;5075472;28;20025;-95
2021/07/30 13:33:29;;;;;;;6.25;2.42;;;;;;;;;;5077987;28;20111;-95
2021/07/30 13:35:55;;;;;;;6.47;2.90;;;;;;;;;;5079831;28;20074;-96
2021/07/30 13:38:21;;;;;;;3.80;2.85;;;;;;;;;;5078220;28;20040;-95
2021/07/30 13:40:48;;;;;;;15.23;3.10;;;;;;;;;;5057066;28;20508;-94
2021/07/30 13:43:13;;;;;;;;;;;28.40;52.90;;;;;;5078588;28;20130;-95
2021/07/30 13:45:40;;;;;;;12.33;3.30;;;;;;;;;;5056601;28;19909;-95
2021/07/30 13:48:07;;;;;;;;;;;28.60;53.70;;;;;;5064180;28;20029;-96
2021/07/30 13:50:33;;;;;;;7.15;3.28;;;;;;;;;;5072669;28;19904;-95
2021/07/30 13:52:59;;;;;;;5.88;3.47;;;;;;;;;;5076313;28;20044;-95
2021/07/30 13:55:25;;;;;;;5.78;3.20;;;;;;;;;;5064452;28;20104;-94
2021/07/30 13:57:51;;;;;;;6.38;3.40;;;;;;;;;;5068751;28;20039;-96
2021/07/30 14:00:17;;;;;;;8.50;4.13;;;;;;;;;;5063997;28;20021;-96
2021/07/30 14:02:43;;;;;;;6.32;3.28;;;;;;;;;;5053595;28;20086;-96
2021/07/30 14:05:10;;;;;;;6.72;2.95;;;;;;;;;;5059592;28;20071;-95
2021/07/30 14:07:41;;;;;;;5.68;2.50;;;27.70;54.40;;;;;;5076149;28;20508;-95
2021/07/30 14:10:08;;;;;;;6.43;3.08;;;27.70;55.10;;;;;;5075056;28;20113;-95
2021/07/30 14:12:35;;;;;;;4.30;2.70;;;;;;;;;;5073034;28;20786;-95
2021/07/30 14:15:00;;;;;;;4.00;2.47;;;;;;;;;;5078726;28;20017;-96
2021/07/30 14:17:26;;;;;;;3.60;2.15;;;;;;;;;;5056955;28;20394;-92
2021/07/30 14:19:53;;;;;;;5.57;2.45;;;;;;;;;;5057900;28;20078;-95